Time;durP1;ratioP1;P1;durP2;ratioP2;P2;SDS_P1;SDS_P2;PMS_P1;PMS_P2;Temp;Humidity;BMP_temperature;BMP_pressure;BME280_temperature;BME280_humidity;BME280_pressure;Samples;Min_cycle;Max_cycle;Signal;HPM_P1;HPM_P2
2022/01/05 00:02:09;;;;;;;2.88;1.92;;;20.90;62.50;;;;;;4947374;28;86444;-85
2022/01/05 00:04:35;;;;;;;3.90;1.65;;;21.00;62.40;;;;;;4947219;28;86220;-89
2022/01/05 00:07:02;;;;;;;2.50;1.58;;;20.90;62.50;;;;;;4944382;28;88455;-91
2022/01/05 00:09:28;;;;;;;2.45;1.70;;;20.90;62.40;;;;;;4928160;28;89227;-89
2022/01/05 00:11:54;;;;;;;2.55;1.70;;;20.90;62.20;;;;;;4947252;28;86198;-92
2022/01/05 00:14:20;;;;;;;3.33;1.75;;;20.90;62.50;;;;;;4928086;28;85628;-88
2022/01/05 00:16:46;;;;;;;2.30;1.77;;;20.90;62.60;;;;;;4946548;28;86288;-85
2022/01/05 00:19:11;;;;;;;2.78;1.50;;;20.90;62.50;;;;;;4929368;28;88542;-88
2022/01/05 00:21:38;;;;;;;2.40;1.75;;;20.90;62.30;;;;;;4945492;28;86093;-88
2022/01/05 00:24:04;;;;;;;3.30;1.85;;;20.90;62.40;;;;;;4945844;28;86157;-90
2022/01/05 00:26:30;;;;;;;2.75;1.67;;;20.90;62.20;;;;;;4944083;28;88936;-87
2022/01/05 00:28:55;;;;;;;3.30;1.67;;;20.90;62.20;;;;;;4929353;28;88694;-86
2022/01/05 00:31:21;;;;;;;1.73;1.63;;;20.90;62.10;;;;;;4926759;28;86006;-85
2022/01/05 00:33:47;;;;;;;3.95;1.83;;;20.80;62.10;;;;;;4948892;28;86106;-91
2022/01/05 00:36:12;;;;;;;2.95;1.73;;;20.80;62.30;;;;;;4944866;28;86778;-91
2022/01/05 00:38:38;;;;;;;2.03;1.42;;;20.80;62.90;;;;;;4929121;28;88558;-89
2022/01/05 00:41:04;;;;;;;2.72;1.77;;;20.80;62.10;;;;;;4945201;28;86381;-92
2022/01/05 00:43:30;;;;;;;2.22;1.52;;;20.80;62.00;;;;;;4949143;28;85680;-87
2022/01/05 00:45:57;;;;;;;2.35;1.42;;;20.80;61.90;;;;;;4946969;28;88911;-88
2022/01/05 00:48:22;;;;;;;3.08;1.55;;;20.80;62.10;;;;;;4945002;28;87341;-90
2022/01/05 00:50:48;;;;;;;2.78;1.70;;;20.80;61.90;;;;;;4944845;28;87069;-87
2022/01/05 00:53:13;;;;;;;2.28;1.63;;;20.80;62.00;;;;;;4948465;28;86330;-91
2022/01/05 00:55:39;;;;;;;2.53;1.60;;;20.70;61.90;;;;;;4947995;28;86786;-90
2022/01/05 00:58:05;;;;;;;2.03;1.67;;;20.80;61.90;;;;;;4928366;28;88008;-87
2022/01/05 01:00:31;;;;;;;2.38;1.52;;;20.70;61.90;;;;;;4945818;28;86410;-87
2022/01/05 01:02:57;;;;;;;3.75;1.90;;;20.80;61.80;;;;;;4931944;28;85633;-88
2022/01/05 01:05:22;;;;;;;2.75;1.70;;;20.70;61.80;;;;;;4928563;28;89283;-90
2022/01/05 01:07:48;;;;;;;2.60;1.70;;;20.70;61.70;;;;;;4946620;28;88800;-91
2022/01/05 01:10:14;;;;;;;2.95;1.40;;;20.70;61.70;;;;;;4934986;28;86134;-86
2022/01/05 01:12:40;;;;;;;2.58;1.42;;;20.70;61.80;;;;;;4948992;28;85614;-89
2022/01/05 01:15:08;;;;;;;3.00;1.52;;;20.70;61.50;;;;;;4948442;28;87987;-91
2022/01/05 01:17:34;;;;;;;1.95;1.33;;;20.70;61.60;;;;;;4947634;28;88772;-85
2022/01/05 01:20:00;;;;;;;3.25;1.60;;;20.70;61.60;;;;;;4939428;28;86063;-88
2022/01/05 01:22:29;;;;;;;2.47;1.40;;;20.70;61.50;;;;;;4949257;28;86701;-90
2022/01/05 01:24:54;;;;;;;1.63;1.40;;;20.70;61.60;;;;;;4944337;28;89211;-88
2022/01/05 01:27:20;;;;;;;2.38;1.40;;;20.70;61.50;;;;;;4949477;28;86455;-91
2022/01/05 01:29:46;;;;;;;2.45;1.60;;;20.70;61.40;;;;;;4946897;28;86146;-91
2022/01/05 01:32:21;;;;;;;2.53;1.45;;;20.60;61.40;;;;;;4950700;28;85391;-90
2022/01/05 01:34:47;;;;;;;1.98;1.48;;;20.60;61.50;;;;;;4949574;28;86023;-90
2022/01/05 01:37:12;;;;;;;2.30;1.48;;;20.60;61.50;;;;;;4949267;28;86251;-90
2022/01/05 01:39:38;;;;;;;3.17;1.65;;;20.60;61.50;;;;;;4949313;28;86326;-86
2022/01/05 01:42:04;;;;;;;2.55;1.42;;;20.60;61.40;;;;;;4947448;28;85681;-90
2022/01/05 01:44:30;;;;;;;2.28;1.67;;;20.60;61.40;;;;;;4949161;28;86830;-90
2022/01/05 01:46:55;;;;;;;2.53;1.30;;;20.60;61.30;;;;;;4951480;28;85845;-91
2022/01/05 01:49:21;;;;;;;2.38;1.52;;;20.60;61.40;;;;;;4947192;28;86619;-91
2022/01/05 01:51:46;;;;;;;3.00;1.52;;;20.60;61.30;;;;;;4944815;28;85828;-89
2022/01/05 01:54:13;;;;;;;3.47;1.75;;;20.60;61.10;;;;;;4948767;28;87104;-87
2022/01/05 01:56:38;;;;;;;2.08;1.27;;;20.50;61.10;;;;;;4949730;28;88281;-91
2022/01/05 01:59:04;;;;;;;2.35;1.35;;;20.60;61.20;;;;;;4929264;28;86416;-89
2022/01/05 02:01:30;;;;;;;2.45;1.48;;;20.60;61.00;;;;;;4946183;28;86110;-90
2022/01/05 02:03:56;;;;;;;1.70;1.30;;;20.50;61.00;;;;;;4942245;28;89123;-92
2022/01/05 02:06:22;;;;;;;3.25;1.42;;;20.60;61.00;;;;;;4948687;28;89156;-91
2022/01/05 02:08:49;;;;;;;3.30;1.52;;;20.50;61.00;;;;;;4951304;28;85893;-91
2022/01/05 02:11:15;;;;;;;2.30;1.50;;;20.50;60.70;;;;;;4947670;28;85839;-91
2022/01/05 02:13:41;;;;;;;2.38;1.23;;;20.50;60.70;;;;;;4947376;28;88408;-90
2022/01/05 02:16:16;;;;;;;1.73;1.30;;;20.50;60.80;;;;;;4948142;28;88125;-91
2022/01/05 02:21:12;;;;;;;1.60;1.25;;;20.50;60.80;;;;;;4950591;28;86084;-88
2022/01/05 02:23:38;;;;;;;2.25;1.40;;;20.50;60.70;;;;;;4949656;28;86177;-90
2022/01/05 02:26:06;;;;;;;1.40;1.20;;;20.50;60.80;;;;;;4949259;28;87175;-88
2022/01/05 02:28:31;;;;;;;3.10;1.60;;;20.50;60.90;;;;;;4950223;28;86149;-90
2022/01/05 02:30:57;;;;;;;2.42;1.40;;;20.40;60.80;;;;;;4933409;28;86733;-89
2022/01/05 02:33:24;;;;;;;1.58;1.48;;;20.40;60.70;;;;;;4949453;28;87015;-90
2022/01/05 02:35:51;;;;;;;2.15;1.58;;;20.50;60.80;;;;;;4950411;28;85691;-89
2022/01/05 02:38:18;;;;;;;1.80;1.30;;;20.40;60.60;;;;;;4931994;28;85599;-88
2022/01/05 02:40:44;;;;;;;2.42;1.27;;;20.40;60.50;;;;;;4948819;28;85759;-90
2022/01/05 02:43:10;;;;;;;4.53;1.77;;;20.40;60.60;;;;;;4948187;28;86882;-87
2022/01/05 02:45:35;;;;;;;1.90;1.48;;;20.40;60.60;;;;;;4950738;28;86241;-91
2022/01/05 02:48:02;;;;;;;2.85;1.40;;;20.40;60.60;;;;;;4949596;28;86078;-89
2022/01/05 02:50:28;;;;;;;2.72;1.60;;;20.40;60.60;;;;;;4949315;28;85737;-87
2022/01/05 02:52:54;;;;;;;2.08;1.50;;;20.40;60.40;;;;;;4948599;28;86800;-89
2022/01/05 02:55:19;;;;;;;2.78;1.48;;;20.40;60.50;;;;;;4947864;28;86464;-87
2022/01/05 02:57:45;;;;;;;2.08;1.33;;;20.40;60.40;;;;;;4949234;28;86005;-87
2022/01/05 03:00:13;;;;;;;2.35;1.52;;;20.40;60.50;;;;;;4948270;28;86002;-87
2022/01/05 03:02:39;;;;;;;2.75;1.30;;;20.30;60.50;;;;;;4948591;28;86147;-88
2022/01/05 03:05:06;;;;;;;2.05;1.30;;;20.30;60.40;;;;;;4947480;28;87524;-91
2022/01/05 03:07:36;;;;;;;1.77;1.20;;;20.30;60.40;;;;;;4947498;28;86068;-88
2022/01/05 03:10:03;;;;;;;2.13;1.52;;;20.30;60.50;;;;;;4931719;28;86382;-91
2022/01/05 03:12:29;;;;;;;2.30;1.50;;;20.30;60.40;;;;;;4947998;28;88421;-91
2022/01/05 03:14:54;;;;;;;3.08;1.45;;;20.30;60.30;;;;;;4945957;28;88903;-90
2022/01/05 03:17:20;;;;;;;2.65;1.50;;;20.30;60.40;;;;;;4950442;28;86266;-92
2022/01/05 03:19:46;;;;;;;1.33;1.10;;;20.30;60.20;;;;;;4948702;28;86451;-86
2022/01/05 03:22:11;;;;;;;1.92;1.23;;;20.30;60.30;;;;;;4949578;28;86308;-91
2022/01/05 03:24:37;;;;;;;2.60;1.55;;;20.30;60.20;;;;;;4944837;28;86635;-88
2022/01/05 03:27:03;;;;;;;3.47;1.60;;;20.30;60.30;;;;;;4929956;28;86204;-91
2022/01/05 03:29:28;;;;;;;2.22;1.40;;;20.20;60.30;;;;;;4949404;28;86040;-86
2022/01/05 03:31:54;;;;;;;1.98;1.30;;;20.30;60.30;;;;;;4945604;28;87105;-90
2022/01/05 03:34:20;;;;;;;2.15;1.45;;;20.20;60.10;;;;;;4946944;28;89316;-89
2022/01/05 03:36:47;;;;;;;3.30;1.40;;;20.20;59.90;;;;;;4948828;28;86219;-88
2022/01/05 03:39:13;;;;;;;2.13;1.38;;;20.20;60.00;;;;;;4948017;28;85630;-87
2022/01/05 03:41:39;;;;;;;2.17;1.40;;;20.20;59.90;;;;;;4947499;28;86446;-88
2022/01/05 03:44:05;;;;;;;2.90;1.50;;;20.20;60.00;;;;;;4948611;28;86865;-89
2022/01/05 03:46:31;;;;;;;2.83;1.55;;;20.20;59.80;;;;;;4931341;28;86486;-92
2022/01/05 03:48:57;;;;;;;2.13;1.33;;;20.20;59.70;;;;;;4949317;28;86292;-91
2022/01/05 03:51:23;;;;;;;3.22;1.45;;;20.20;59.80;;;;;;4948921;28;86801;-90
2022/01/05 03:53:48;;;;;;;3.45;1.40;;;20.20;59.80;;;;;;4949248;28;86460;-86
2022/01/05 03:56:14;;;;;;;2.15;1.30;;;20.20;59.60;;;;;;4930121;28;86621;-84
2022/01/05 03:58:39;;;;;;;1.88;1.25;;;20.20;59.70;;;;;;4931249;28;86136;-89
2022/01/05 04:01:05;;;;;;;2.33;1.65;;;20.20;59.60;;;;;;4945463;28;86398;-88
2022/01/05 04:03:31;;;;;;;2.33;1.40;;;20.20;60.40;;;;;;4948880;28;86510;-88
2022/01/05 04:05:57;;;;;;;2.20;1.45;;;20.20;59.70;;;;;;4948086;28;86082;-87
2022/01/05 04:08:22;;;;;;;2.40;1.30;;;20.20;59.50;;;;;;4949305;28;85855;-88
2022/01/05 04:10:48;;;;;;;2.90;1.42;;;20.20;59.60;;;;;;4949057;28;87043;-89
2022/01/05 04:13:15;;;;;;;3.10;1.48;;;20.10;59.60;;;;;;4931553;28;88328;-87
2022/01/05 04:15:41;;;;;;;2.40;1.33;;;20.10;59.50;;;;;;4946589;28;85708;-86
2022/01/05 04:18:07;;;;;;;2.97;1.50;;;20.10;59.60;;;;;;4945347;28;86759;-90
2022/01/05 04:20:33;;;;;;;1.70;1.17;;;20.10;59.60;;;;;;4944603;28;86815;-86
2022/01/05 04:22:58;;;;;;;2.08;1.20;;;20.10;59.50;;;;;;4948161;28;85988;-91
2022/01/05 04:25:24;;;;;;;1.98;1.25;;;20.10;59.50;;;;;;4945960;28;87002;-89
2022/01/05 04:27:52;;;;;;;2.72;1.20;;;20.10;59.60;;;;;;4946870;28;86127;-85
2022/01/05 04:30:18;;;;;;;3.72;1.42;;;20.10;59.50;;;;;;4946917;28;86929;-90
2022/01/05 04:32:43;;;;;;;2.05;1.30;;;20.10;59.60;;;;;;4944877;28;88818;-88
2022/01/05 04:35:13;;;;;;;2.10;1.30;;;20.10;59.50;;;;;;4930019;28;86587;-91
2022/01/05 04:37:40;;;;;;;2.03;1.10;;;20.10;59.50;;;;;;4945951;28;86086;-86
2022/01/05 04:40:07;;;;;;;2.58;1.50;;;20.10;59.40;;;;;;4943952;28;89390;-88
2022/01/05 04:42:33;;;;;;;2.17;1.45;;;20.10;59.30;;;;;;4944291;28;88567;-89
2022/01/05 04:44:59;;;;;;;2.65;1.52;;;20.10;59.20;;;;;;4944363;28;85754;-87
2022/01/05 04:47:24;;;;;;;2.65;1.30;;;20.10;59.40;;;;;;4949086;28;86409;-89
2022/01/05 04:49:50;;;;;;;2.22;1.15;;;20.10;59.40;;;;;;4946529;28;86855;-91
2022/01/05 04:52:16;;;;;;;2.85;1.35;;;20.00;59.20;;;;;;4947428;28;89124;-90
2022/01/05 04:54:42;;;;;;;1.77;1.35;;;20.00;59.20;;;;;;4945271;28;86020;-87
2022/01/05 04:57:07;;;;;;;3.22;1.45;;;20.00;59.20;;;;;;4947523;28;85959;-90
2022/01/05 04:59:34;;;;;;;2.67;1.30;;;20.00;59.10;;;;;;4944995;28;86627;-90
2022/01/05 05:01:59;;;;;;;2.30;1.38;;;20.10;59.00;;;;;;4944178;28;86922;-90
2022/01/05 05:04:25;;;;;;;2.85;1.50;;;20.00;59.10;;;;;;4946605;28;86626;-91
2022/01/05 05:06:54;;;;;;;2.20;1.27;;;20.00;59.00;;;;;;4929474;28;86180;-85
2022/01/05 05:09:19;;;;;;;2.85;1.30;;;20.00;59.10;;;;;;4927496;28;87856;-85
2022/01/05 05:11:45;;;;;;;3.00;1.70;;;20.00;59.00;;;;;;4930024;28;87456;-89
2022/01/05 05:14:11;;;;;;;2.65;1.50;;;20.00;59.00;;;;;;4929251;28;85957;-86
2022/01/05 05:16:37;;;;;;;2.45;1.35;;;20.00;59.00;;;;;;4929074;28;85837;-85
2022/01/05 05:19:02;;;;;;;2.88;1.30;;;20.00;59.10;;;;;;4946350;28;87720;-90
2022/01/05 05:21:30;;;;;;;2.40;1.50;;;20.00;58.90;;;;;;4944319;28;87450;-87
2022/01/05 05:23:56;;;;;;;2.20;1.48;;;20.00;59.00;;;;;;4945622;28;86735;-91
2022/01/05 05:26:21;;;;;;;2.60;1.42;;;19.90;58.80;;;;;;4936315;28;86281;-91
2022/01/05 05:28:47;;;;;;;2.00;1.35;;;19.90;58.80;;;;;;4945146;28;86852;-86
2022/01/05 05:31:13;;;;;;;2.78;1.40;;;19.90;58.80;;;;;;4948200;28;87600;-85
2022/01/05 05:33:38;;;;;;;2.80;1.45;;;19.90;58.70;;;;;;4946205;28;86566;-86
2022/01/05 05:36:04;;;;;;;1.95;1.40;;;19.90;58.80;;;;;;4944224;28;86139;-89
2022/01/05 05:38:30;;;;;;;2.63;1.30;;;19.90;58.80;;;;;;4944493;28;86232;-89
2022/01/05 05:40:56;;;;;;;3.63;1.35;;;19.90;58.60;;;;;;4946174;28;86581;-90
2022/01/05 05:43:22;;;;;;;3.30;1.60;;;19.90;58.60;;;;;;4935072;28;86093;-88
2022/01/05 05:45:48;;;;;;;2.88;1.65;;;20.00;58.70;;;;;;4927835;28;85725;-86
2022/01/05 05:48:13;;;;;;;3.50;1.45;;;19.90;58.70;;;;;;4944123;28;86752;-88
2022/01/05 05:50:39;;;;;;;3.78;1.50;;;19.90;58.50;;;;;;4947458;28;86407;-86
2022/01/05 05:53:05;;;;;;;3.53;1.52;;;19.90;58.50;;;;;;4929650;28;86177;-86
2022/01/05 05:55:31;;;;;;;2.85;1.40;;;19.90;58.60;;;;;;4949039;28;85757;-88
2022/01/05 05:57:56;;;;;;;2.08;1.40;;;19.90;58.60;;;;;;4948664;28;86658;-88
2022/01/05 06:00:22;;;;;;;3.58;1.50;;;19.90;58.50;;;;;;4949216;28;86108;-88
2022/01/05 06:02:48;;;;;;;2.88;1.48;;;19.90;58.60;;;;;;4949755;28;85639;-86
2022/01/05 06:05:14;;;;;;;2.88;1.50;;;19.80;58.50;;;;;;4950134;28;85677;-91
2022/01/05 06:07:39;;;;;;;1.88;1.45;;;19.80;59.20;;;;;;4930761;28;89539;-89
2022/01/05 06:10:05;;;;;;;3.38;1.60;;;19.80;58.40;;;;;;4946823;28;87962;-84
2022/01/05 06:12:31;;;;;;;2.30;1.27;;;19.90;58.40;;;;;;4947099;28;85679;-87
2022/01/05 06:14:57;;;;;;;3.35;1.42;;;19.80;58.40;;;;;;4946419;28;86242;-88
2022/01/05 06:17:26;;;;;;;2.22;1.30;;;19.80;58.20;;;;;;4948137;28;86970;-90
2022/01/05 06:19:52;;;;;;;2.42;1.52;;;19.80;58.20;;;;;;4945371;28;89082;-88
2022/01/05 06:22:18;;;;;;;2.85;1.25;;;19.80;58.30;;;;;;4931084;28;86340;-88
2022/01/05 06:24:44;;;;;;;1.95;1.10;;;19.80;58.40;;;;;;4945781;28;85941;-88
2022/01/05 06:27:10;;;;;;;2.50;1.27;;;19.80;58.30;;;;;;4945670;28;89894;-86
2022/01/05 06:29:37;;;;;;;3.97;1.63;;;19.80;58.20;;;;;;4947760;28;86508;-88
2022/01/05 06:32:04;;;;;;;1.90;1.30;;;19.80;58.30;;;;;;4945612;28;85696;-85
2022/01/05 06:34:29;;;;;;;2.63;1.42;;;19.80;58.10;;;;;;4947458;28;85577;-90
2022/01/05 06:36:55;;;;;;;2.70;1.50;;;19.80;58.20;;;;;;4946941;28;86335;-90
2022/01/05 06:39:21;;;;;;;3.00;1.50;;;19.80;58.20;;;;;;4932461;28;87680;-88
2022/01/05 06:41:46;;;;;;;3.05;1.25;;;19.80;58.30;;;;;;4946864;28;85736;-89
2022/01/05 06:44:12;;;;;;;3.05;1.55;;;19.80;58.10;;;;;;4948760;28;86282;-84
2022/01/05 06:46:38;;;;;;;2.90;1.27;;;19.80;58.20;;;;;;4948902;28;86546;-86
2022/01/05 06:49:04;;;;;;;2.85;1.60;;;19.80;58.10;;;;;;4946459;28;86220;-85
2022/01/05 06:51:29;;;;;;;2.67;1.48;;;19.80;57.50;;;;;;4930307;28;86838;-88
2022/01/05 06:53:55;;;;;;;2.90;1.17;;;19.80;57.80;;;;;;4945685;28;86519;-88
2022/01/05 06:56:21;;;;;;;3.83;1.55;;;19.70;57.90;;;;;;4943900;28;86921;-89
2022/01/05 06:58:46;;;;;;;2.40;1.60;;;19.80;58.10;;;;;;4946425;28;87918;-88
2022/01/05 07:01:12;;;;;;;6.93;1.80;;;19.80;58.60;;;;;;4945812;28;87021;-85
2022/01/05 07:03:38;;;;;;;3.05;1.92;;;19.80;58.70;;;;;;4947757;28;85558;-89
2022/01/05 07:06:04;;;;;;;6.82;1.77;;;19.80;58.70;;;;;;4944945;28;86588;-87
2022/01/05 07:08:30;;;;;;;2.95;1.60;;;19.90;58.60;;;;;;4943270;28;89081;-89
2022/01/05 07:10:56;;;;;;;2.72;1.48;;;20.00;58.60;;;;;;4940697;28;86467;-85
2022/01/05 07:13:22;;;;;;;3.25;1.60;;;20.00;58.60;;;;;;4944951;28;86358;-88
2022/01/05 07:15:48;;;;;;;4.25;1.55;;;20.10;58.90;;;;;;4947700;28;86769;-82
2022/01/05 07:18:14;;;;;;;2.55;1.55;;;20.10;58.80;;;;;;4944368;28;88331;-87
2022/01/05 07:20:40;;;;;;;2.90;1.58;;;20.10;58.90;;;;;;4946687;28;86387;-85
2022/01/05 07:23:05;;;;;;;3.17;1.63;;;20.20;58.80;;;;;;4946383;28;86876;-84
2022/01/05 07:25:31;;;;;;;3.47;1.60;;;20.20;58.80;;;;;;4945586;28;86131;-90
2022/01/05 07:27:57;;;;;;;4.28;1.80;;;20.20;58.60;;;;;;4943896;28;87979;-86
2022/01/05 07:30:22;;;;;;;2.88;1.35;;;20.30;58.60;;;;;;4944043;28;86551;-86
2022/01/05 07:32:48;;;;;;;4.88;1.65;;;20.30;58.50;;;;;;4946274;28;86694;-86
2022/01/05 07:35:14;;;;;;;4.50;1.65;;;20.30;58.60;;;;;;4945748;28;86445;-83
2022/01/05 07:37:39;;;;;;;2.88;1.55;;;20.20;58.50;;;;;;4929016;28;89110;-85
2022/01/05 07:40:06;;;;;;;6.82;2.22;;;20.30;58.40;;;;;;4926145;28;86470;-86
2022/01/05 07:42:34;;;;;;;7.57;1.95;;;20.30;58.40;;;;;;4946772;28;86105;-89
2022/01/05 07:45:01;;;;;;;6.35;2.08;;;20.30;57.60;;;;;;4945055;28;86959;-84
2022/01/05 07:47:36;;;;;;;3.78;1.60;;;20.20;57.30;;;;;;4946958;28;86418;-85
2022/01/05 07:50:04;;;;;;;2.83;1.80;;;20.20;57.70;;;;;;4943458;28;86172;-86
2022/01/05 07:52:29;;;;;;;5.00;1.83;;;20.20;57.80;;;;;;4946466;28;86331;-84
2022/01/05 07:54:55;;;;;;;6.07;1.90;;;20.20;58.00;;;;;;4927688;28;89216;-85
2022/01/05 07:57:20;;;;;;;15.57;3.30;;;20.20;58.00;;;;;;4945883;28;85986;-84
2022/01/05 07:59:46;;;;;;;10.07;3.03;;;20.20;57.40;;;;;;4926536;28;86318;-83
2022/01/05 08:02:12;;;;;;;64.85;12.98;;;20.20;58.00;;;;;;4945407;28;86005;-85
2022/01/05 08:04:38;;;;;;;51.45;9.52;;;20.20;55.50;;;;;;4945699;28;86764;-86
2022/01/05 08:07:04;;;;;;;48.25;10.32;;;20.20;56.20;;;;;;4948142;28;86958;-86
2022/01/05 08:09:30;;;;;;;44.47;9.07;;;20.20;54.70;;;;;;4946590;28;87173;-85
2022/01/05 08:11:57;;;;;;;35.95;8.32;;;20.10;55.60;;;;;;4946773;28;86090;-86
2022/01/05 08:14:22;;;;;;;40.25;10.23;;;20.20;55.00;;;;;;4948299;28;86493;-90
2022/01/05 08:16:48;;;;;;;47.92;10.90;;;20.20;55.10;;;;;;4943279;28;86055;-92
2022/01/05 08:19:14;;;;;;;43.85;10.23;;;20.20;54.00;;;;;;4934265;28;86791;-88
2022/01/05 08:21:39;;;;;;;56.10;11.45;;;20.20;53.30;;;;;;4943112;28;86349;-83
2022/01/05 08:24:05;;;;;;;49.15;10.77;;;20.20;52.90;;;;;;4923427;28;90026;-89
2022/01/05 08:26:31;;;;;;;53.65;10.60;;;20.30;53.80;;;;;;4940916;28;85977;-85
2022/01/05 08:28:57;;;;;;;45.15;11.05;;;20.30;55.00;;;;;;4920457;28;86609;-86
2022/01/05 08:31:22;;;;;;;49.05;11.50;;;20.30;53.80;;;;;;4943847;28;86617;-90
2022/01/05 08:33:56;;;;;;;55.33;11.90;;;20.30;53.50;;;;;;4943799;28;85879;-83
2022/01/05 08:36:21;;;;;;;46.20;10.68;;;20.30;55.10;;;;;;4938168;28;86737;-83
2022/01/05 08:38:47;;;;;;;41.03;10.90;;;20.30;55.20;;;;;;4938462;28;86588;-84
2022/01/05 08:41:13;;;;;;;44.13;10.60;;;20.30;54.60;;;;;;4942364;28;86397;-83
2022/01/05 08:43:38;;;;;;;39.72;10.07;;;20.30;55.80;;;;;;4934019;28;86667;-85
2022/01/05 08:46:04;;;;;;;45.92;10.77;;;20.30;56.00;;;;;;4922583;28;88855;-84
2022/01/05 08:48:30;;;;;;;38.47;10.13;;;20.30;56.10;;;;;;4938860;28;86524;-85
2022/01/05 08:50:55;;;;;;;33.55;9.65;;;20.20;56.20;;;;;;4940309;28;86541;-84
2022/01/05 08:53:22;;;;;;;38.67;9.45;;;20.20;56.30;;;;;;4944190;28;87054;-84
2022/01/05 08:55:49;;;;;;;31.48;9.82;;;20.20;56.50;;;;;;4942758;28;86778;-84
2022/01/05 08:58:17;;;;;;;30.80;9.20;;;20.20;56.50;;;;;;4937881;28;86112;-87
2022/01/05 09:00:43;;;;;;;32.60;9.13;;;20.20;56.50;;;;;;4942976;28;86227;-85
2022/01/05 09:03:12;;;;;;;32.58;9.38;;;20.20;56.60;;;;;;4923405;28;89354;-84
2022/01/05 09:05:39;;;;;;;39.67;8.82;;;20.20;56.50;;;;;;4940354;28;86505;-83
2022/01/05 09:08:05;;;;;;;38.38;9.68;;;20.20;56.60;;;;;;4924321;28;86725;-82
2022/01/05 09:10:41;;;;;;;32.30;8.95;;;20.20;56.60;;;;;;4939624;28;86075;-88
2022/01/05 09:13:09;;;;;;;36.28;9.00;;;20.20;56.60;;;;;;4941329;28;86919;-84
2022/01/05 09:15:35;;;;;;;33.67;9.23;;;20.20;56.50;;;;;;4944393;28;87188;-84
2022/01/05 09:18:02;;;;;;;32.92;9.35;;;20.20;56.50;;;;;;4945525;28;86331;-88
2022/01/05 09:20:28;;;;;;;28.55;8.63;;;20.20;56.40;;;;;;4942357;28;86123;-84
2022/01/05 09:22:55;;;;;;;30.88;8.95;;;20.20;56.50;;;;;;4942814;28;86732;-85
2022/01/05 09:25:23;;;;;;;33.05;8.90;;;20.20;56.50;;;;;;4944255;28;86598;-83
2022/01/05 09:27:51;;;;;;;34.28;10.30;;;20.20;56.70;;;;;;4944491;28;86574;-84
2022/01/05 09:30:17;;;;;;;28.50;7.63;;;20.20;56.00;;;;;;4923414;28;86984;-86
2022/01/05 09:32:43;;;;;;;29.02;8.02;;;20.30;54.30;;;;;;4947078;28;85716;-83
2022/01/05 09:35:12;;;;;;;26.65;7.80;;;20.40;55.70;;;;;;4935816;28;86171;-85
2022/01/05 09:43:22;;;;;;;31.17;8.95;;;20.40;56.00;;;;;;4944298;28;86112;-87
2022/01/05 09:46:12;;;;;;;21.75;6.97;;;20.40;56.00;;;;;;4871205;28;89253;-84
2022/01/05 09:48:58;;;;;;;26.35;7.53;;;20.50;56.10;;;;;;4930954;28;85735;-82
2022/01/05 09:51:28;;;;;;;22.15;7.78;;;20.40;56.10;;;;;;4946516;28;85722;-87
2022/01/05 09:53:56;;;;;;;27.52;7.93;;;20.50;56.10;;;;;;4945316;28;86981;-84
2022/01/05 09:56:21;;;;;;;28.58;7.35;;;20.50;56.20;;;;;;4922109;28;88631;-85
2022/01/05 09:58:47;;;;;;;25.35;7.15;;;20.50;56.10;;;;;;4937135;28;86553;-84
2022/01/05 10:01:13;;;;;;;21.58;7.43;;;20.50;55.80;;;;;;4944909;28;86357;-84
2022/01/05 10:03:39;;;;;;;23.73;7.70;;;20.50;56.10;;;;;;4941996;28;86922;-84
2022/01/05 10:06:04;;;;;;;22.55;6.72;;;20.50;55.90;;;;;;4941846;28;86552;-84
2022/01/05 10:08:31;;;;;;;21.50;7.57;;;20.40;56.00;;;;;;4942796;28;86137;-84
2022/01/05 10:10:57;;;;;;;23.08;6.88;;;20.40;56.10;;;;;;4943474;28;85698;-89
2022/01/05 10:13:23;;;;;;;22.85;7.22;;;20.50;56.00;;;;;;4944296;28;86297;-83
2022/01/05 10:15:49;;;;;;;24.25;7.05;;;20.50;56.20;;;;;;4942993;28;86437;-85
2022/01/05 10:18:28;;;;;;;22.45;6.57;;;20.50;56.40;;;;;;4943556;28;86530;-83
2022/01/05 10:21:01;;;;;;;21.43;6.07;;;20.40;56.50;;;;;;4942168;28;86762;-87
2022/01/05 10:23:41;;;;;;;17.92;6.47;;;20.50;56.60;;;;;;4939877;28;90615;-83
2022/01/05 10:26:26;;;;;;;;;;;20.40;56.60;;;;;;4943388;28;85992;-83
2022/01/05 10:28:54;;;;;;;21.85;6.50;;;20.40;56.50;;;;;;4944396;28;86596;-84
2022/01/05 10:31:29;;;;;;;18.80;6.07;;;20.50;56.40;;;;;;4946941;28;86592;-83
2022/01/05 10:33:56;;;;;;;19.92;6.22;;;20.50;56.50;;;;;;4944662;28;86582;-83
2022/01/05 10:36:22;;;;;;;23.58;6.38;;;20.50;56.40;;;;;;4924334;28;88869;-83
2022/01/05 10:38:58;;;;;;;17.63;5.57;;;20.50;56.70;;;;;;4940831;28;85674;-82
2022/01/05 10:41:28;;;;;;;21.60;6.93;;;20.40;56.70;;;;;;4921794;28;85837;-85
2022/01/05 10:44:17;;;;;;;22.08;5.95;;;20.40;56.60;;;;;;4943340;28;86462;-83
2022/01/05 10:46:56;;;;;;;14.60;5.80;;;20.40;56.40;;;;;;4943383;28;86768;-86
2022/01/05 10:49:33;;;;;;;23.50;6.65;;;20.40;56.50;;;;;;4945023;28;86684;-83
2022/01/05 10:52:20;;;;;;;18.13;6.05;;;20.50;56.30;;;;;;4944207;28;85725;-83
2022/01/05 10:54:46;;;;;;;18.10;5.68;;;20.40;56.90;;;;;;4939908;28;86821;-89
2022/01/05 10:57:13;;;;;;;18.17;5.85;;;20.40;56.50;;;;;;4947004;28;86369;-84
2022/01/05 10:59:59;;;;;;;19.85;6.53;;;20.40;57.20;;;;;;4948028;28;86644;-85
2022/01/05 11:02:30;;;;;;;24.08;6.28;;;20.40;57.00;;;;;;4942512;28;86284;-83
2022/01/05 11:05:01;;;;;;;18.38;5.50;;;20.40;56.90;;;;;;4944914;28;86836;-85
2022/01/05 11:07:29;;;;;;;14.05;6.05;;;20.40;56.70;;;;;;4942751;28;86021;-82
2022/01/05 11:09:58;;;;;;;15.85;5.43;;;20.30;56.80;;;;;;4926728;28;87392;-84
2022/01/05 11:12:35;;;;;;;16.88;5.78;;;20.30;57.00;;;;;;4941628;28;86127;-83
2022/01/05 11:15:24;;;;;;;14.10;5.32;;;20.30;56.80;;;;;;4944210;28;86628;-85
2022/01/05 11:18:19;;;;;;;23.27;6.65;;;20.30;56.80;;;;;;4942380;28;86301;-85
2022/01/05 11:21:03;;;;;;;19.65;5.60;;;20.30;56.70;;;;;;4943867;28;85688;-83
2022/01/05 11:23:31;;;;;;;17.45;6.30;;;20.20;56.50;;;;;;4946257;28;85734;-86
2022/01/05 11:25:58;;;;;;;16.75;5.28;;;20.30;56.60;;;;;;4939042;28;89270;-85
2022/01/05 11:28:26;;;;;;;16.48;5.43;;;20.30;56.70;;;;;;4941380;28;88534;-84
2022/01/05 11:30:54;;;;;;;17.05;6.25;;;20.30;56.70;;;;;;4948886;28;86136;-82
2022/01/05 11:33:21;;;;;;;14.70;5.53;;;20.30;56.60;;;;;;4942701;28;86548;-82
2022/01/05 11:35:47;;;;;;;15.60;5.28;;;20.20;56.40;;;;;;4941109;28;87246;-84
2022/01/05 11:38:13;;;;;;;12.48;5.10;;;20.30;56.40;;;;;;4941471;28;86553;-83
2022/01/05 11:40:55;;;;;;;12.70;5.03;;;20.30;56.40;;;;;;4939194;28;86420;-85
2022/01/05 11:43:33;;;;;;;17.20;5.88;;;20.30;56.60;;;;;;4947068;28;86615;-85
2022/01/05 11:46:16;;;;;;;15.48;5.30;;;20.20;56.60;;;;;;4942050;28;86125;-83
2022/01/05 11:49:07;;;;;;;16.30;5.47;;;20.30;56.50;;;;;;4941483;28;86557;-84
2022/01/05 11:51:48;;;;;;;12.05;4.88;;;20.30;56.50;;;;;;4944000;28;87243;-85
2022/01/05 11:54:24;;;;;;;15.18;5.03;;;20.30;56.40;;;;;;4941946;28;85973;-84
2022/01/05 11:56:58;;;;;;;12.25;4.85;;;20.20;56.30;;;;;;4943915;28;86883;-85
2022/01/05 11:59:37;;;;;;;12.27;5.00;;;20.30;56.30;;;;;;4945744;28;88905;-85
2022/01/05 12:02:06;;;;;;;13.73;4.80;;;20.30;56.30;;;;;;4928454;28;86138;-84
2022/01/05 12:04:51;;;;;;;14.73;4.57;;;20.20;56.20;;;;;;4943976;28;86544;-84
2022/01/05 12:07:37;;;;;;;12.98;4.65;;;20.20;56.20;;;;;;4929398;28;88376;-84
2022/01/05 12:10:39;;;;;;;10.70;4.35;;;20.30;56.10;;;;;;4945984;28;86835;-82
2022/01/05 12:13:06;;;;;;;13.57;4.63;;;20.30;56.10;;;;;;4941444;28;85913;-86
2022/01/05 12:15:51;;;;;;;11.00;4.65;;;20.20;56.10;;;;;;4941225;28;85697;-83
2022/01/05 12:18:26;;;;;;;11.98;4.85;;;20.20;56.10;;;;;;4940344;28;89414;-87
2022/01/05 12:20:52;;;;;;;12.32;4.25;;;20.20;56.10;;;;;;4945722;28;86852;-84
2022/01/05 12:23:24;;;;;;;14.45;4.78;;;20.20;56.00;;;;;;4946565;28;86090;-84
2022/01/05 12:26:02;;;;;;;10.88;4.57;;;20.20;56.00;;;;;;4938934;28;85942;-84
2022/01/05 12:28:50;;;;;;;9.73;4.32;;;20.20;56.00;;;;;;4940617;28;86844;-85
2022/01/05 12:31:18;;;;;;;14.50;4.47;;;20.20;55.50;;;;;;4924238;28;87782;-84
2022/01/05 12:33:49;;;;;;;10.57;4.28;;;20.30;55.70;;;;;;4943572;28;85671;-86
2022/01/05 12:36:35;;;;;;;8.70;3.92;;;20.30;55.70;;;;;;4926992;28;86504;-89
2022/01/05 12:39:04;;;;;;;14.68;5.10;;;20.30;55.60;;;;;;4931515;28;89433;-87
2022/01/05 12:41:29;;;;;;;;;;;20.20;55.20;;;;;;4946932;28;86351;-85
2022/01/05 12:43:58;;;;;;;14.93;4.63;;;20.20;55.00;;;;;;4944988;28;85557;-84
2022/01/05 12:46:36;;;;;;;12.98;4.72;;;20.20;52.30;;;;;;4942481;28;86304;-87
2022/01/05 12:49:05;;;;;;;11.93;3.92;;;20.20;53.70;;;;;;4933322;28;89227;-86
2022/01/05 12:51:37;;;;;;;13.38;4.18;;;20.20;54.20;;;;;;4942287;28;86170;-85
2022/01/05 12:54:13;;;;;;;12.38;4.40;;;20.20;53.90;;;;;;4948621;28;86086;-88
2022/01/05 12:56:53;;;;;;;10.65;4.93;;;20.20;54.10;;;;;;4948100;28;86518;-84